sensor_id;sensor_type;location;lat;lon;timestamp;pressure;altitude;pressure_sealevel;temperature;humidity
84994;BME280;75309;44.830;20.460;2024-01-06T00:01:51;99978.69;;;12.78;54.05
84994;BME280;75309;44.830;20.460;2024-01-06T00:04:19;99973.33;;;12.77;53.96
84994;BME280;75309;44.830;20.460;2024-01-06T00:06:47;99973.31;;;12.76;53.89
84994;BME280;75309;44.830;20.460;2024-01-06T00:09:15;99971.04;;;12.75;53.84
84994;BME280;75309;44.830;20.460;2024-01-06T00:11:43;99978.88;;;12.73;53.75
84994;BME280;75309;44.830;20.460;2024-01-06T00:14:12;99975.23;;;12.70;53.91
84994;BME280;75309;44.830;20.460;2024-01-06T00:16:40;99970.97;;;12.72;53.74
84994;BME280;75309;44.830;20.460;2024-01-06T00:19:09;99969.12;;;12.74;53.62
84994;BME280;75309;44.830;20.460;2024-01-06T00:21:38;99969.35;;;12.76;53.64
84994;BME280;75309;44.830;20.460;2024-01-06T00:24:07;99970.40;;;12.76;53.26
84994;BME280;75309;44.830;20.460;2024-01-06T00:26:35;99972.12;;;12.76;53.34
84994;BME280;75309;44.830;20.460;2024-01-06T00:29:03;99970.91;;;12.76;53.43
84994;BME280;75309;44.830;20.460;2024-01-06T00:31:32;99979.52;;;12.77;52.97
84994;BME280;75309;44.830;20.460;2024-01-06T00:34:01;99980.23;;;12.77;52.88
84994;BME280;75309;44.830;20.460;2024-01-06T00:36:31;99977.86;;;12.79;53.03
84994;BME280;75309;44.830;20.460;2024-01-06T00:38:59;99975.67;;;12.80;52.86
84994;BME280;75309;44.830;20.460;2024-01-06T00:41:28;99971.94;;;12.82;52.93
84994;BME280;75309;44.830;20.460;2024-01-06T00:43:56;99974.88;;;12.83;52.71
84994;BME280;75309;44.830;20.460;2024-01-06T00:46:24;99970.64;;;12.84;52.75
84994;BME280;75309;44.830;20.460;2024-01-06T00:48:52;99965.17;;;12.86;52.61
84994;BME280;75309;44.830;20.460;2024-01-06T00:51:20;99966.36;;;12.86;52.26
84994;BME280;75309;44.830;20.460;2024-01-06T00:53:48;99961.65;;;12.89;52.09
84994;BME280;75309;44.830;20.460;2024-01-06T00:56:17;99959.24;;;12.89;52.07
84994;BME280;75309;44.830;20.460;2024-01-06T00:58:46;99958.91;;;12.89;51.86
84994;BME280;75309;44.830;20.460;2024-01-06T01:01:14;99957.16;;;12.89;51.71
84994;BME280;75309;44.830;20.460;2024-01-06T01:03:43;99959.94;;;12.90;51.56
84994;BME280;75309;44.830;20.460;2024-01-06T01:06:11;99955.16;;;12.91;51.48
84994;BME280;75309;44.830;20.460;2024-01-06T01:08:39;99951.73;;;12.91;51.07
84994;BME280;75309;44.830;20.460;2024-01-06T01:11:07;99954.67;;;12.92;50.95
84994;BME280;75309;44.830;20.460;2024-01-06T01:13:37;99945.10;;;12.94;50.74
84994;BME280;75309;44.830;20.460;2024-01-06T01:16:06;99946.48;;;12.95;50.86
84994;BME280;75309;44.830;20.460;2024-01-06T01:18:34;99944.30;;;12.96;51.04
84994;BME280;75309;44.830;20.460;2024-01-06T01:21:02;99944.50;;;12.98;51.06
84994;BME280;75309;44.830;20.460;2024-01-06T01:23:30;99942.44;;;12.97;50.72
84994;BME280;75309;44.830;20.460;2024-01-06T01:25:58;99939.48;;;12.97;50.56
84994;BME280;75309;44.830;20.460;2024-01-06T01:28:27;99938.08;;;12.95;50.79
84994;BME280;75309;44.830;20.460;2024-01-06T01:30:56;99932.41;;;12.95;50.68
84994;BME280;75309;44.830;20.460;2024-01-06T01:33:25;99935.12;;;12.94;50.08
84994;BME280;75309;44.830;20.460;2024-01-06T01:35:53;99939.09;;;12.95;50.44
84994;BME280;75309;44.830;20.460;2024-01-06T01:38:21;99938.26;;;12.95;50.49
84994;BME280;75309;44.830;20.460;2024-01-06T01:40:49;99931.73;;;12.95;50.17
84994;BME280;75309;44.830;20.460;2024-01-06T01:43:18;99921.73;;;12.95;50.21
84994;BME280;75309;44.830;20.460;2024-01-06T01:45:50;99914.02;;;12.96;49.73
84994;BME280;75309;44.830;20.460;2024-01-06T01:48:20;99910.28;;;12.97;49.86
84994;BME280;75309;44.830;20.460;2024-01-06T01:50:50;99905.68;;;12.99;49.34
84994;BME280;75309;44.830;20.460;2024-01-06T01:53:19;99892.07;;;12.99;49.26
84994;BME280;75309;44.830;20.460;2024-01-06T01:55:48;99890.56;;;13.00;49.18
84994;BME280;75309;44.830;20.460;2024-01-06T01:58:17;99889.72;;;13.01;48.82
84994;BME280;75309;44.830;20.460;2024-01-06T02:00:45;99889.06;;;13.02;49.03
84994;BME280;75309;44.830;20.460;2024-01-06T02:03:14;99888.77;;;13.04;48.96
84994;BME280;75309;44.830;20.460;2024-01-06T02:05:43;99887.45;;;13.06;48.68
84994;BME280;75309;44.830;20.460;2024-01-06T02:08:11;99885.25;;;13.08;48.45
84994;BME280;75309;44.830;20.460;2024-01-06T02:10:39;99881.76;;;13.05;47.95
84994;BME280;75309;44.830;20.460;2024-01-06T02:13:11;99880.56;;;13.06;48.39
84994;BME280;75309;44.830;20.460;2024-01-06T02:15:40;99883.67;;;13.06;48.54
84994;BME280;75309;44.830;20.460;2024-01-06T02:18:08;99878.52;;;13.07;48.57
84994;BME280;75309;44.830;20.460;2024-01-06T02:20:37;99876.30;;;13.07;48.42
84994;BME280;75309;44.830;20.460;2024-01-06T02:23:06;99880.80;;;13.09;48.56
84994;BME280;75309;44.830;20.460;2024-01-06T02:25:34;99876.70;;;13.10;48.35
84994;BME280;75309;44.830;20.460;2024-01-06T02:28:03;99879.65;;;13.11;48.21
84994;BME280;75309;44.830;20.460;2024-01-06T02:30:31;99874.88;;;13.12;48.05
84994;BME280;75309;44.830;20.460;2024-01-06T02:32:59;99869.04;;;13.13;48.01
84994;BME280;75309;44.830;20.460;2024-01-06T02:35:27;99864.27;;;13.14;48.08
84994;BME280;75309;44.830;20.460;2024-01-06T02:37:55;99857.05;;;13.15;47.76
84994;BME280;75309;44.830;20.460;2024-01-06T02:40:24;99852.06;;;13.15;47.53
84994;BME280;75309;44.830;20.460;2024-01-06T02:42:53;99849.67;;;13.16;47.37
84994;BME280;75309;44.830;20.460;2024-01-06T02:45:22;99851.23;;;13.16;47.69
84994;BME280;75309;44.830;20.460;2024-01-06T02:47:51;99848.82;;;13.16;47.56
84994;BME280;75309;44.830;20.460;2024-01-06T02:50:19;99850.03;;;13.16;47.35
84994;BME280;75309;44.830;20.460;2024-01-06T02:52:47;99849.36;;;13.17;47.47
84994;BME280;75309;44.830;20.460;2024-01-06T02:55:15;99843.36;;;13.17;47.36
84994;BME280;75309;44.830;20.460;2024-01-06T02:57:45;99852.14;;;13.18;47.37
84994;BME280;75309;44.830;20.460;2024-01-06T03:00:14;99846.97;;;13.17;47.38
84994;BME280;75309;44.830;20.460;2024-01-06T03:02:44;99847.98;;;13.17;47.32
84994;BME280;75309;44.830;20.460;2024-01-06T03:05:12;99843.31;;;13.15;47.26
84994;BME280;75309;44.830;20.460;2024-01-06T03:07:40;99833.29;;;13.14;47.40
84994;BME280;75309;44.830;20.460;2024-01-06T03:10:08;99828.25;;;13.13;47.51
84994;BME280;75309;44.830;20.460;2024-01-06T03:12:37;99826.36;;;13.13;47.58
84994;BME280;75309;44.830;20.460;2024-01-06T03:15:06;99828.08;;;13.12;47.37
84994;BME280;75309;44.830;20.460;2024-01-06T03:17:35;99823.58;;;13.11;47.28
84994;BME280;75309;44.830;20.460;2024-01-06T03:20:04;99821.49;;;13.10;47.42
84994;BME280;75309;44.830;20.460;2024-01-06T03:22:35;99824.23;;;13.10;47.17
84994;BME280;75309;44.830;20.460;2024-01-06T03:25:04;99817.50;;;13.09;47.24
84994;BME280;75309;44.830;20.460;2024-01-06T03:27:32;99813.54;;;13.08;47.54
84994;BME280;75309;44.830;20.460;2024-01-06T03:30:00;99810.80;;;13.09;47.38
84994;BME280;75309;44.830;20.460;2024-01-06T03:32:28;99809.73;;;13.08;47.37
84994;BME280;75309;44.830;20.460;2024-01-06T03:34:57;99811.23;;;13.07;47.41
84994;BME280;75309;44.830;20.460;2024-01-06T03:37:25;99806.45;;;13.07;47.48
84994;BME280;75309;44.830;20.460;2024-01-06T03:39:53;99799.20;;;13.07;47.49
84994;BME280;75309;44.830;20.460;2024-01-06T03:42:21;99799.39;;;13.07;47.28
84994;BME280;75309;44.830;20.460;2024-01-06T03:44:49;99796.43;;;13.06;47.24
84994;BME280;75309;44.830;20.460;2024-01-06T03:47:18;99794.00;;;13.04;47.20
84994;BME280;75309;44.830;20.460;2024-01-06T03:49:47;99794.30;;;13.02;47.43
84994;BME280;75309;44.830;20.460;2024-01-06T03:52:15;99794.77;;;13.01;47.55
84994;BME280;75309;44.830;20.460;2024-01-06T03:54:44;99796.13;;;13.00;47.56
84994;BME280;75309;44.830;20.460;2024-01-06T03:57:12;99791.45;;;12.99;47.63
84994;BME280;75309;44.830;20.460;2024-01-06T03:59:39;99788.36;;;12.99;47.56
84994;BME280;75309;44.830;20.460;2024-01-06T04:02:08;99791.05;;;12.97;47.52
84994;BME280;75309;44.830;20.460;2024-01-06T04:04:36;99793.77;;;12.95;47.61
84994;BME280;75309;44.830;20.460;2024-01-06T04:07:04;99786.88;;;12.95;47.71
84994;BME280;75309;44.830;20.460;2024-01-06T04:09:33;99782.08;;;12.95;47.67
84994;BME280;75309;44.830;20.460;2024-01-06T04:12:02;99780.16;;;12.94;47.72
84994;BME280;75309;44.830;20.460;2024-01-06T04:14:31;99777.95;;;12.95;47.82
84994;BME280;75309;44.830;20.460;2024-01-06T04:17:00;99780.53;;;12.96;47.88
84994;BME280;75309;44.830;20.460;2024-01-06T04:19:28;99780.02;;;12.96;47.76
84994;BME280;75309;44.830;20.460;2024-01-06T04:21:57;99780.20;;;12.96;47.67
84994;BME280;75309;44.830;20.460;2024-01-06T04:24:26;99777.21;;;12.94;47.75
84994;BME280;75309;44.830;20.460;2024-01-06T04:26:55;99776.68;;;12.93;47.77
84994;BME280;75309;44.830;20.460;2024-01-06T04:29:24;99776.00;;;12.93;47.73
84994;BME280;75309;44.830;20.460;2024-01-06T04:31:52;99773.05;;;12.92;47.78
84994;BME280;75309;44.830;20.460;2024-01-06T04:34:20;99769.75;;;12.91;47.91
84994;BME280;75309;44.830;20.460;2024-01-06T04:36:48;99766.98;;;12.90;47.87
84994;BME280;75309;44.830;20.460;2024-01-06T04:39:18;99765.59;;;12.89;47.97
84994;BME280;75309;44.830;20.460;2024-01-06T04:41:46;99765.39;;;12.89;47.93
84994;BME280;75309;44.830;20.460;2024-01-06T04:44:14;99773.63;;;12.88;48.03
84994;BME280;75309;44.830;20.460;2024-01-06T04:46:42;99769.65;;;12.87;48.01
84994;BME280;75309;44.830;20.460;2024-01-06T04:49:10;99769.46;;;12.86;48.00
84994;BME280;75309;44.830;20.460;2024-01-06T04:51:39;99768.39;;;12.85;48.16
84994;BME280;75309;44.830;20.460;2024-01-06T04:54:07;99771.63;;;12.83;48.03
84994;BME280;75309;44.830;20.460;2024-01-06T04:56:35;99770.56;;;12.82;48.03
84994;BME280;75309;44.830;20.460;2024-01-06T04:59:03;99767.77;;;12.81;48.06
84994;BME280;75309;44.830;20.460;2024-01-06T05:01:31;99770.87;;;12.80;48.34
84994;BME280;75309;44.830;20.460;2024-01-06T05:04:00;99768.64;;;12.81;48.33
84994;BME280;75309;44.830;20.460;2024-01-06T05:06:28;99769.04;;;12.83;48.29
84994;BME280;75309;44.830;20.460;2024-01-06T05:08:56;99768.95;;;12.86;48.25
84994;BME280;75309;44.830;20.460;2024-01-06T05:11:26;99767.12;;;12.88;48.19
84994;BME280;75309;44.830;20.460;2024-01-06T05:13:54;99772.65;;;12.90;48.21
84994;BME280;75309;44.830;20.460;2024-01-06T05:16:22;99770.27;;;12.91;48.21
84994;BME280;75309;44.830;20.460;2024-01-06T05:18:50;99766.03;;;12.94;48.37
84994;BME280;75309;44.830;20.460;2024-01-06T05:21:19;99769.67;;;12.95;48.41
84994;BME280;75309;44.830;20.460;2024-01-06T05:23:48;99770.25;;;12.97;48.44
84994;BME280;75309;44.830;20.460;2024-01-06T05:26:18;99763.73;;;12.97;48.18
84994;BME280;75309;44.830;20.460;2024-01-06T05:28:46;99767.30;;;12.96;48.17
84994;BME280;75309;44.830;20.460;2024-01-06T05:31:14;99766.82;;;12.97;48.00
84994;BME280;75309;44.830;20.460;2024-01-06T05:33:42;99761.61;;;12.95;48.09
84994;BME280;75309;44.830;20.460;2024-01-06T05:36:11;99763.14;;;12.95;48.00
84994;BME280;75309;44.830;20.460;2024-01-06T05:38:39;99762.58;;;12.92;48.01
84994;BME280;75309;44.830;20.460;2024-01-06T05:41:08;99762.00;;;12.90;48.08
84994;BME280;75309;44.830;20.460;2024-01-06T05:43:36;99763.34;;;12.89;48.14
84994;BME280;75309;44.830;20.460;2024-01-06T05:46:04;99761.90;;;12.86;48.10
84994;BME280;75309;44.830;20.460;2024-01-06T05:48:33;99762.04;;;12.85;48.05
84994;BME280;75309;44.830;20.460;2024-01-06T05:51:01;99761.00;;;12.85;48.26
84994;BME280;75309;44.830;20.460;2024-01-06T05:53:29;99760.98;;;12.84;48.13
84994;BME280;75309;44.830;20.460;2024-01-06T05:55:57;99760.80;;;12.84;48.00
84994;BME280;75309;44.830;20.460;2024-01-06T05:58:25;99761.81;;;12.83;48.07
84994;BME280;75309;44.830;20.460;2024-01-06T06:00:53;99763.89;;;12.83;48.00
84994;BME280;75309;44.830;20.460;2024-01-06T06:03:22;99765.05;;;12.81;48.09
84994;BME280;75309;44.830;20.460;2024-01-06T06:05:50;99769.48;;;12.80;48.33
84994;BME280;75309;44.830;20.460;2024-01-06T06:08:18;99772.70;;;12.78;48.17
84994;BME280;75309;44.830;20.460;2024-01-06T06:10:46;99773.39;;;12.78;48.31
84994;BME280;75309;44.830;20.460;2024-01-06T06:13:38;99765.80;;;12.78;48.25
84994;BME280;75309;44.830;20.460;2024-01-06T06:16:11;99766.14;;;12.78;48.30
84994;BME280;75309;44.830;20.460;2024-01-06T06:18:43;99769.06;;;12.77;48.29
84994;BME280;75309;44.830;20.460;2024-01-06T06:21:11;99762.70;;;12.77;48.37
84994;BME280;75309;44.830;20.460;2024-01-06T06:23:39;99763.02;;;12.77;48.33
84994;BME280;75309;44.830;20.460;2024-01-06T06:26:08;99767.48;;;12.76;48.24
84994;BME280;75309;44.830;20.460;2024-01-06T06:28:36;99768.32;;;12.75;48.24
84994;BME280;75309;44.830;20.460;2024-01-06T06:31:04;99765.58;;;12.75;48.11
84994;BME280;75309;44.830;20.460;2024-01-06T06:33:32;99759.89;;;12.75;48.19
84994;BME280;75309;44.830;20.460;2024-01-06T06:36:04;99761.61;;;12.75;48.12
84994;BME280;75309;44.830;20.460;2024-01-06T06:38:32;99760.22;;;12.75;48.17
84994;BME280;75309;44.830;20.460;2024-01-06T06:41:00;99758.52;;;12.75;48.25
84994;BME280;75309;44.830;20.460;2024-01-06T06:43:29;99761.09;;;12.75;48.31
84994;BME280;75309;44.830;20.460;2024-01-06T06:45:58;99760.24;;;12.75;48.19
84994;BME280;75309;44.830;20.460;2024-01-06T06:48:26;99760.59;;;12.76;48.40
84994;BME280;75309;44.830;20.460;2024-01-06T06:50:54;99761.84;;;12.77;48.24
84994;BME280;75309;44.830;20.460;2024-01-06T06:53:25;99764.45;;;12.79;48.15
84994;BME280;75309;44.830;20.460;2024-01-06T06:55:53;99765.56;;;12.82;48.25
84994;BME280;75309;44.830;20.460;2024-01-06T06:58:21;99766.79;;;12.82;48.21
84994;BME280;75309;44.830;20.460;2024-01-06T07:00:50;99772.86;;;12.84;48.19
84994;BME280;75309;44.830;20.460;2024-01-06T07:03:18;99767.08;;;12.87;48.11
84994;BME280;75309;44.830;20.460;2024-01-06T07:05:47;99772.64;;;12.90;47.98
84994;BME280;75309;44.830;20.460;2024-01-06T07:08:15;99772.02;;;12.92;48.04
84994;BME280;75309;44.830;20.460;2024-01-06T07:10:43;99771.55;;;12.94;48.03
84994;BME280;75309;44.830;20.460;2024-01-06T07:13:13;99776.36;;;12.94;47.95
84994;BME280;75309;44.830;20.460;2024-01-06T07:15:41;99779.70;;;12.96;47.94
84994;BME280;75309;44.830;20.460;2024-01-06T07:18:09;99776.46;;;12.98;47.87
84994;BME280;75309;44.830;20.460;2024-01-06T07:20:38;99776.01;;;13.00;47.88
84994;BME280;75309;44.830;20.460;2024-01-06T07:23:07;99778.28;;;13.01;47.86
84994;BME280;75309;44.830;20.460;2024-01-06T07:25:35;99780.75;;;13.04;47.88
84994;BME280;75309;44.830;20.460;2024-01-06T07:28:03;99777.86;;;13.06;47.89
84994;BME280;75309;44.830;20.460;2024-01-06T07:30:31;99780.09;;;13.06;47.94
84994;BME280;75309;44.830;20.460;2024-01-06T07:32:59;99778.74;;;13.07;47.92
84994;BME280;75309;44.830;20.460;2024-01-06T07:35:29;99774.46;;;13.08;47.77
84994;BME280;75309;44.830;20.460;2024-01-06T07:37:57;99772.09;;;13.09;47.84
84994;BME280;75309;44.830;20.460;2024-01-06T07:40:25;99769.36;;;13.11;47.83
84994;BME280;75309;44.830;20.460;2024-01-06T07:42:53;99769.60;;;13.13;47.70
84994;BME280;75309;44.830;20.460;2024-01-06T07:45:22;99762.95;;;13.15;47.74
84994;BME280;75309;44.830;20.460;2024-01-06T07:47:50;99770.64;;;13.20;47.73
84994;BME280;75309;44.830;20.460;2024-01-06T07:50:18;99774.35;;;13.24;47.55
84994;BME280;75309;44.830;20.460;2024-01-06T07:52:46;99773.60;;;13.29;47.25
84994;BME280;75309;44.830;20.460;2024-01-06T07:55:14;99770.27;;;13.33;47.30
84994;BME280;75309;44.830;20.460;2024-01-06T07:57:42;99769.54;;;13.38;47.33
84994;BME280;75309;44.830;20.460;2024-01-06T08:00:11;99774.11;;;13.43;47.22
84994;BME280;75309;44.830;20.460;2024-01-06T08:02:42;99777.33;;;13.47;47.11
84994;BME280;75309;44.830;20.460;2024-01-06T08:05:10;99773.10;;;13.51;47.24
84994;BME280;75309;44.830;20.460;2024-01-06T08:07:38;99775.22;;;13.54;47.19
84994;BME280;75309;44.830;20.460;2024-01-06T08:10:08;99773.56;;;13.56;47.04
84994;BME280;75309;44.830;20.460;2024-01-06T08:12:37;99767.23;;;13.58;46.98
84994;BME280;75309;44.830;20.460;2024-01-06T08:15:07;99768.34;;;13.62;46.95
84994;BME280;75309;44.830;20.460;2024-01-06T08:17:36;99762.58;;;13.65;47.05
84994;BME280;75309;44.830;20.460;2024-01-06T08:20:06;99762.98;;;13.68;46.78
84994;BME280;75309;44.830;20.460;2024-01-06T08:22:34;99759.59;;;13.70;46.84
84994;BME280;75309;44.830;20.460;2024-01-06T08:25:02;99764.33;;;13.75;46.95
84994;BME280;75309;44.830;20.460;2024-01-06T08:27:30;99759.21;;;13.78;46.79
84994;BME280;75309;44.830;20.460;2024-01-06T08:29:58;99763.52;;;13.78;46.71
84994;BME280;75309;44.830;20.460;2024-01-06T08:32:27;99764.09;;;13.80;46.69
84994;BME280;75309;44.830;20.460;2024-01-06T08:34:55;99767.56;;;13.81;46.89
84994;BME280;75309;44.830;20.460;2024-01-06T08:37:23;99761.91;;;13.83;46.80
84994;BME280;75309;44.830;20.460;2024-01-06T08:39:52;99767.45;;;13.84;46.53
84994;BME280;75309;44.830;20.460;2024-01-06T08:42:20;99767.48;;;13.85;46.87
84994;BME280;75309;44.830;20.460;2024-01-06T08:44:49;99767.67;;;13.86;46.65
84994;BME280;75309;44.830;20.460;2024-01-06T08:47:17;99763.73;;;13.87;46.96
84994;BME280;75309;44.830;20.460;2024-01-06T08:49:45;99765.31;;;13.89;46.81
84994;BME280;75309;44.830;20.460;2024-01-06T08:52:13;99762.25;;;13.90;46.88
84994;BME280;75309;44.830;20.460;2024-01-06T08:54:41;99761.23;;;13.91;47.01
84994;BME280;75309;44.830;20.460;2024-01-06T08:57:10;99758.52;;;13.93;46.78
84994;BME280;75309;44.830;20.460;2024-01-06T08:59:39;99757.52;;;13.95;46.93
84994;BME280;75309;44.830;20.460;2024-01-06T09:02:07;99755.81;;;13.96;46.97
84994;BME280;75309;44.830;20.460;2024-01-06T09:04:36;99756.21;;;13.99;46.77
84994;BME280;75309;44.830;20.460;2024-01-06T09:07:04;99754.02;;;14.00;46.79
84994;BME280;75309;44.830;20.460;2024-01-06T09:09:33;99757.33;;;14.02;46.99
84994;BME280;75309;44.830;20.460;2024-01-06T09:12:01;99753.38;;;14.04;46.53
84994;BME280;75309;44.830;20.460;2024-01-06T09:14:29;99752.85;;;14.02;46.54
84994;BME280;75309;44.830;20.460;2024-01-06T09:16:58;99754.59;;;14.04;46.71
84994;BME280;75309;44.830;20.460;2024-01-06T09:19:26;99749.27;;;14.04;46.84
84994;BME280;75309;44.830;20.460;2024-01-06T09:21:56;99747.59;;;14.07;46.77
84994;BME280;75309;44.830;20.460;2024-01-06T09:24:24;99752.25;;;14.08;46.66
84994;BME280;75309;44.830;20.460;2024-01-06T09:26:54;99752.96;;;14.09;46.85
84994;BME280;75309;44.830;20.460;2024-01-06T09:29:23;99748.49;;;14.09;46.82
84994;BME280;75309;44.830;20.460;2024-01-06T09:31:52;99749.36;;;14.09;46.86
84994;BME280;75309;44.830;20.460;2024-01-06T09:34:20;99748.48;;;14.09;46.81
84994;BME280;75309;44.830;20.460;2024-01-06T09:36:49;99742.63;;;14.09;46.96
84994;BME280;75309;44.830;20.460;2024-01-06T09:39:17;99745.39;;;14.09;46.94
84994;BME280;75309;44.830;20.460;2024-01-06T09:41:45;99740.76;;;14.10;46.97
84994;BME280;75309;44.830;20.460;2024-01-06T09:44:13;99737.50;;;14.11;46.81
84994;BME280;75309;44.830;20.460;2024-01-06T09:46:44;99733.36;;;14.11;46.87
84994;BME280;75309;44.830;20.460;2024-01-06T09:49:12;99728.52;;;14.10;46.99
84994;BME280;75309;44.830;20.460;2024-01-06T09:51:43;99723.49;;;14.09;46.81
84994;BME280;75309;44.830;20.460;2024-01-06T09:54:23;99721.77;;;14.09;46.87
84994;BME280;75309;44.830;20.460;2024-01-06T09:56:56;99720.09;;;14.10;46.98
84994;BME280;75309;44.830;20.460;2024-01-06T09:59:24;99713.74;;;14.12;46.90
84994;BME280;75309;44.830;20.460;2024-01-06T10:01:52;99705.31;;;14.13;46.94
84994;BME280;75309;44.830;20.460;2024-01-06T10:04:21;99699.31;;;14.14;46.92
84994;BME280;75309;44.830;20.460;2024-01-06T10:06:54;99695.21;;;14.16;47.14
84994;BME280;75309;44.830;20.460;2024-01-06T10:09:27;99694.00;;;14.17;47.09
84994;BME280;75309;44.830;20.460;2024-01-06T10:11:56;99694.36;;;14.17;47.06
84994;BME280;75309;44.830;20.460;2024-01-06T10:14:27;99697.99;;;14.18;47.05
84994;BME280;75309;44.830;20.460;2024-01-06T10:16:55;99695.40;;;14.17;47.20
84994;BME280;75309;44.830;20.460;2024-01-06T10:19:23;99694.05;;;14.18;47.30
84994;BME280;75309;44.830;20.460;2024-01-06T10:21:52;99697.69;;;14.20;47.27
84994;BME280;75309;44.830;20.460;2024-01-06T10:24:20;99694.80;;;14.21;47.31
84994;BME280;75309;44.830;20.460;2024-01-06T10:26:48;99692.22;;;14.22;47.40
84994;BME280;75309;44.830;20.460;2024-01-06T10:29:17;99691.02;;;14.22;47.22
84994;BME280;75309;44.830;20.460;2024-01-06T10:31:45;99689.31;;;14.23;47.25
84994;BME280;75309;44.830;20.460;2024-01-06T10:34:14;99684.50;;;14.25;47.35
84994;BME280;75309;44.830;20.460;2024-01-06T10:36:43;99679.88;;;14.26;47.41
84994;BME280;75309;44.830;20.460;2024-01-06T10:39:14;99673.69;;;14.26;47.33
84994;BME280;75309;44.830;20.460;2024-01-06T10:41:44;99673.16;;;14.26;47.35
84994;BME280;75309;44.830;20.460;2024-01-06T10:44:15;99671.98;;;14.27;47.29
84994;BME280;75309;44.830;20.460;2024-01-06T10:46:44;99668.52;;;14.27;47.34
84994;BME280;75309;44.830;20.460;2024-01-06T10:49:18;99662.99;;;14.26;47.27
84994;BME280;75309;44.830;20.460;2024-01-06T10:51:50;99668.87;;;14.27;47.47
84994;BME280;75309;44.830;20.460;2024-01-06T10:54:20;99665.24;;;14.27;47.50
84994;BME280;75309;44.830;20.460;2024-01-06T10:56:51;99663.52;;;14.26;47.55
84994;BME280;75309;44.830;20.460;2024-01-06T10:59:21;99657.48;;;14.27;47.60
84994;BME280;75309;44.830;20.460;2024-01-06T11:01:52;99655.43;;;14.27;47.64
84994;BME280;75309;44.830;20.460;2024-01-06T11:04:22;99652.99;;;14.26;47.58
84994;BME280;75309;44.830;20.460;2024-01-06T11:06:51;99646.76;;;14.24;47.69
84994;BME280;75309;44.830;20.460;2024-01-06T11:09:24;99640.37;;;14.24;47.83
84994;BME280;75309;44.830;20.460;2024-01-06T11:11:53;99632.27;;;14.24;47.94
84994;BME280;75309;44.830;20.460;2024-01-06T11:14:26;99625.52;;;14.22;48.06
84994;BME280;75309;44.830;20.460;2024-01-06T11:16:57;99623.30;;;14.23;48.07
84994;BME280;75309;44.830;20.460;2024-01-06T11:24:51;99611.08;;;14.23;48.10
84994;BME280;75309;44.830;20.460;2024-01-06T11:27:23;99609.52;;;14.24;48.21
84994;BME280;75309;44.830;20.460;2024-01-06T11:30:02;99600.92;;;14.25;48.16
84994;BME280;75309;44.830;20.460;2024-01-06T11:32:36;99599.38;;;14.25;48.24
84994;BME280;75309;44.830;20.460;2024-01-06T11:35:12;99601.78;;;14.25;48.44
84994;BME280;75309;44.830;20.460;2024-01-06T11:43:00;99589.70;;;14.24;48.58
84994;BME280;75309;44.830;20.460;2024-01-06T11:45:30;99585.23;;;14.25;48.45
84994;BME280;75309;44.830;20.460;2024-01-06T11:48:01;99584.57;;;14.26;48.66
84994;BME280;75309;44.830;20.460;2024-01-06T11:50:36;99584.38;;;14.25;48.66
84994;BME280;75309;44.830;20.460;2024-01-06T11:53:06;99580.43;;;14.26;48.68
84994;BME280;75309;44.830;20.460;2024-01-06T11:55:35;99576.98;;;14.25;48.64
84994;BME280;75309;44.830;20.460;2024-01-06T11:58:03;99574.23;;;14.26;48.74
84994;BME280;75309;44.830;20.460;2024-01-06T12:00:34;99579.42;;;14.28;48.77
84994;BME280;75309;44.830;20.460;2024-01-06T12:03:07;99575.84;;;14.29;48.81
84994;BME280;75309;44.830;20.460;2024-01-06T12:05:35;99577.75;;;14.31;48.87
84994;BME280;75309;44.830;20.460;2024-01-06T12:08:05;99571.06;;;14.32;48.78
84994;BME280;75309;44.830;20.460;2024-01-06T12:10:36;99565.91;;;14.34;48.84
84994;BME280;75309;44.830;20.460;2024-01-06T12:13:06;99569.23;;;14.37;49.07
84994;BME280;75309;44.830;20.460;2024-01-06T12:15:45;99566.67;;;14.38;49.05
84994;BME280;75309;44.830;20.460;2024-01-06T12:18:14;99563.76;;;14.40;49.32
84994;BME280;75309;44.830;20.460;2024-01-06T12:20:44;99564.83;;;14.42;49.36
84994;BME280;75309;44.830;20.460;2024-01-06T12:23:27;99557.96;;;14.44;49.34
84994;BME280;75309;44.830;20.460;2024-01-06T12:25:56;99553.98;;;14.44;49.35
84994;BME280;75309;44.830;20.460;2024-01-06T12:28:27;99554.52;;;14.44;49.38
84994;BME280;75309;44.830;20.460;2024-01-06T12:30:55;99558.64;;;14.43;49.39
84994;BME280;75309;44.830;20.460;2024-01-06T12:33:25;99556.75;;;14.44;49.41
84994;BME280;75309;44.830;20.460;2024-01-06T12:35:54;99550.55;;;14.43;49.78
84994;BME280;75309;44.830;20.460;2024-01-06T12:38:23;99551.23;;;14.43;49.76
84994;BME280;75309;44.830;20.460;2024-01-06T12:40:55;99553.98;;;14.43;49.92
84994;BME280;75309;44.830;20.460;2024-01-06T12:43:23;99555.00;;;14.42;49.70
84994;BME280;75309;44.830;20.460;2024-01-06T12:45:51;99554.65;;;14.42;49.56
84994;BME280;75309;44.830;20.460;2024-01-06T12:48:21;99555.33;;;14.41;49.84
84994;BME280;75309;44.830;20.460;2024-01-06T12:50:50;99549.48;;;14.42;49.72
84994;BME280;75309;44.830;20.460;2024-01-06T12:53:18;99554.78;;;14.38;50.00
84994;BME280;75309;44.830;20.460;2024-01-06T12:55:46;99551.93;;;14.32;50.14
84994;BME280;75309;44.830;20.460;2024-01-06T12:58:15;99547.67;;;14.25;50.53
84994;BME280;75309;44.830;20.460;2024-01-06T13:00:43;99552.34;;;14.14;50.68
84994;BME280;75309;44.830;20.460;2024-01-06T13:03:11;99551.15;;;14.06;51.02
84994;BME280;75309;44.830;20.460;2024-01-06T13:05:39;99552.95;;;14.00;51.07
84994;BME280;75309;44.830;20.460;2024-01-06T13:08:07;99554.64;;;13.98;51.30
84994;BME280;75309;44.830;20.460;2024-01-06T13:10:35;99549.31;;;13.99;51.22